Ludlow, Maine
Current Conditions -  °F | °C
As of 9:53 AM on Sunday 23 Nov 2014 (Local Time) from KHUL Reporting Station
Overcast Overcast  
Wind Chill: 34°   Ceiling: 5500
Heat Index: 39°   Visibility: 10mi
Dew Point: 30°   Wind: 7mph
Humidity: 70%   Direction: 250°WSW
Pressure: 29.98"   Gusts: NA
Location:  46.1163°N, 67.9329°W
Report Text: KHUL 231453Z AUTO 25006KT 10SM OVC055 04/M01 A2998 RMK AO2 SLP160 T00391011 51021
Loading
Personal Weather Stations






























Interactive Weather Map New forecast layout! Learn more

10-Day Weather Forecast

Advertisements
Track Severe Weather on mobile